createdAt,value
2019-03-19T00:02:01.495Z,7.97
2019-03-19T00:04:28.345Z,7.80
2019-03-19T00:06:55.118Z,9.57
2019-03-19T00:09:22.015Z,9.43
2019-03-19T00:11:48.919Z,6.90
2019-03-19T00:14:15.926Z,9.97
2019-03-19T00:16:42.863Z,13.17
2019-03-19T00:19:09.856Z,11.10
2019-03-19T00:21:36.661Z,8.97
2019-03-19T00:24:03.539Z,10.33
2019-03-19T00:26:30.433Z,6.93
2019-03-19T00:28:57.177Z,10.70
2019-03-19T00:31:24.144Z,11.63
2019-03-19T00:33:50.935Z,9.40
2019-03-19T00:36:17.808Z,7.97
2019-03-19T00:38:44.815Z,12.27
2019-03-19T00:41:11.677Z,5.63
2019-03-19T00:43:38.461Z,10.63
2019-03-19T00:46:05.363Z,10.13
2019-03-19T00:48:32.230Z,12.63
2019-03-19T00:50:59.103Z,11.17
2019-03-19T00:53:25.879Z,7.97
2019-03-19T00:55:52.879Z,10.43
2019-03-19T00:58:19.926Z,7.37
2019-03-19T01:00:46.811Z,8.03
2019-03-19T01:03:13.799Z,9.03
2019-03-19T01:05:40.799Z,6.13
2019-03-19T01:08:07.582Z,11.20
2019-03-19T01:10:34.579Z,8.50
2019-03-19T01:13:01.423Z,10.37
2019-03-19T01:15:28.262Z,10.43
2019-03-19T01:17:54.989Z,11.17
2019-03-19T01:20:21.834Z,9.83
2019-03-19T01:22:48.599Z,9.47
2019-03-19T01:25:15.351Z,14.47
2019-03-19T01:27:42.224Z,11.57
2019-03-19T01:30:10.070Z,11.63
2019-03-19T01:32:36.912Z,13.57
2019-03-19T01:35:04.516Z,17.57
2019-03-19T01:37:31.314Z,10.00
2019-03-19T01:39:58.047Z,8.73
2019-03-19T01:42:24.955Z,11.23
2019-03-19T01:44:51.884Z,8.40
2019-03-19T01:47:18.644Z,10.53
2019-03-19T01:49:45.407Z,12.53
2019-03-19T01:52:12.204Z,10.70
2019-03-19T01:54:38.971Z,11.90
2019-03-19T01:57:05.709Z,11.00
2019-03-19T01:59:32.458Z,12.37
2019-03-19T02:01:59.176Z,13.03
2019-03-19T02:04:26.189Z,8.57
2019-03-19T02:06:53.186Z,10.13
2019-03-19T02:09:20.027Z,9.83
2019-03-19T02:11:46.775Z,10.00
2019-03-19T02:14:13.500Z,8.67
2019-03-19T02:16:40.385Z,9.40
2019-03-19T02:19:07.267Z,17.97
2019-03-19T02:21:34.126Z,9.90
2019-03-19T02:24:00.845Z,13.47
2019-03-19T02:26:27.739Z,14.37
2019-03-19T02:28:54.859Z,12.83
2019-03-19T02:31:21.580Z,10.50
2019-03-19T02:33:48.427Z,19.60
2019-03-19T02:36:15.312Z,12.30
2019-03-19T02:38:42.240Z,10.63
2019-03-19T02:41:09.025Z,15.13
2019-03-19T02:43:35.952Z,10.20
2019-03-19T02:46:02.787Z,12.57
2019-03-19T02:48:29.532Z,16.33
2019-03-19T02:50:56.307Z,15.07
2019-03-19T02:53:23.095Z,6.53
2019-03-19T02:55:49.864Z,11.03
2019-03-19T02:58:16.594Z,16.80
2019-03-19T03:00:43.480Z,16.10
2019-03-19T03:03:10.335Z,13.77
2019-03-19T03:05:37.217Z,16.53
2019-03-19T03:08:04.229Z,11.10
2019-03-19T03:10:30.991Z,7.63
2019-03-19T03:12:57.915Z,10.47
2019-03-19T03:15:24.772Z,9.80
2019-03-19T03:17:51.520Z,14.40
2019-03-19T03:20:18.502Z,12.83
2019-03-19T03:22:45.297Z,14.43
2019-03-19T03:25:12.365Z,16.67
2019-03-19T03:27:39.117Z,16.70
2019-03-19T03:30:07.374Z,10.43
2019-03-19T03:32:34.217Z,14.00
2019-03-19T03:35:01.105Z,11.37
2019-03-19T03:37:28.064Z,12.33
2019-03-19T03:39:54.931Z,16.50
2019-03-19T03:42:21.900Z,11.87
2019-03-19T03:44:48.633Z,9.83
2019-03-19T03:47:15.480Z,12.73
2019-03-19T03:49:42.347Z,10.10
2019-03-19T03:52:09.186Z,16.80
2019-03-19T03:54:35.976Z,14.80
2019-03-19T03:57:03.158Z,11.40
2019-03-19T03:59:30.194Z,14.03
2019-03-19T04:01:57.182Z,9.17
2019-03-19T04:04:24.169Z,14.17
2019-03-19T04:06:51.040Z,23.07
2019-03-19T04:09:18.044Z,19.97
2019-03-19T04:11:44.947Z,10.63
2019-03-19T04:14:11.760Z,15.20
2019-03-19T04:16:38.613Z,10.47
2019-03-19T04:19:05.472Z,13.47
2019-03-19T04:21:32.230Z,14.03
2019-03-19T04:23:59.260Z,11.50
2019-03-19T04:26:26.132Z,19.00
2019-03-19T04:28:53.138Z,13.30
2019-03-19T04:31:20.036Z,13.00
2019-03-19T04:33:46.827Z,11.50
2019-03-19T04:36:13.603Z,14.97
2019-03-19T04:38:40.392Z,12.23
2019-03-19T04:41:07.184Z,15.73
2019-03-19T04:43:33.923Z,18.60
2019-03-19T04:46:00.751Z,10.87
2019-03-19T04:48:27.576Z,17.47
2019-03-19T04:50:54.329Z,19.00
2019-03-19T04:53:21.071Z,21.80
2019-03-19T04:55:47.875Z,16.47
2019-03-19T04:58:14.668Z,18.50
2019-03-19T05:00:41.493Z,21.63
2019-03-19T05:03:08.370Z,20.00
2019-03-19T05:05:35.145Z,15.57
2019-03-19T05:08:01.872Z,25.93
2019-03-19T05:10:28.663Z,24.10
2019-03-19T05:12:55.550Z,17.40
2019-03-19T05:15:22.429Z,17.53
2019-03-19T05:17:49.305Z,11.93
2019-03-19T05:20:16.176Z,17.20
2019-03-19T05:22:43.399Z,14.10
2019-03-19T05:25:10.669Z,14.23
2019-03-19T05:27:37.996Z,18.53
2019-03-19T05:30:06.147Z,16.07
2019-03-19T05:32:32.944Z,12.33
2019-03-19T05:34:59.868Z,17.57
2019-03-19T05:37:26.777Z,14.57
2019-03-19T05:39:53.666Z,14.10
2019-03-19T05:42:20.655Z,18.27
2019-03-19T05:44:47.668Z,18.83
2019-03-19T05:47:14.552Z,19.15
2019-03-19T05:49:41.439Z,17.60
2019-03-19T05:52:08.167Z,17.77
2019-03-19T05:54:35.039Z,19.27
2019-03-19T05:57:01.917Z,17.20
2019-03-19T05:59:28.652Z,16.10
2019-03-19T06:01:55.507Z,18.77
2019-03-19T06:04:22.303Z,20.07
2019-03-19T06:06:49.323Z,17.43
2019-03-19T06:09:16.120Z,15.37
2019-03-19T06:11:43.001Z,15.80
2019-03-19T06:14:09.891Z,17.30
2019-03-19T06:16:36.781Z,17.10
2019-03-19T06:19:03.666Z,17.73
2019-03-19T06:21:30.685Z,19.40
2019-03-19T06:23:57.519Z,16.37
2019-03-19T06:26:24.384Z,14.13
2019-03-19T06:28:51.179Z,17.80
2019-03-19T06:31:17.999Z,14.87
2019-03-19T06:33:44.899Z,17.13
2019-03-19T06:36:11.779Z,11.03
2019-03-19T06:38:38.603Z,11.87
2019-03-19T06:41:05.556Z,16.33
2019-03-19T06:43:32.531Z,37.97
2019-03-19T06:45:59.304Z,42.47
2019-03-19T06:48:26.051Z,30.67
2019-03-19T06:50:52.878Z,36.03
2019-03-19T06:53:19.635Z,18.50
2019-03-19T06:55:46.351Z,25.77
2019-03-19T06:58:13.149Z,18.30
2019-03-19T07:00:39.925Z,15.57
2019-03-19T07:03:06.827Z,18.47
2019-03-19T07:05:33.713Z,21.30
2019-03-19T07:08:00.627Z,14.47
2019-03-19T07:10:27.543Z,12.43
2019-03-19T07:12:54.444Z,13.93
2019-03-19T07:15:21.600Z,19.10
2019-03-19T07:17:48.461Z,14.37
2019-03-19T07:20:15.428Z,10.73
2019-03-19T07:22:44.547Z,14.40
2019-03-19T07:25:11.893Z,11.93
2019-03-19T07:27:38.883Z,12.97
2019-03-19T07:30:07.727Z,13.70
2019-03-19T07:32:34.657Z,15.80
2019-03-19T07:35:01.676Z,15.03
2019-03-19T07:37:28.426Z,10.87
2019-03-19T07:39:55.167Z,12.83
2019-03-19T07:42:22.043Z,16.50
2019-03-19T07:44:48.929Z,11.10
2019-03-19T07:47:15.863Z,11.67
2019-03-19T07:49:42.743Z,13.37
2019-03-19T07:52:09.607Z,11.27
2019-03-19T07:54:36.351Z,13.27
2019-03-19T07:57:03.408Z,12.73
2019-03-19T07:59:30.515Z,14.83
2019-03-19T08:01:57.399Z,17.13
2019-03-19T08:04:24.229Z,18.93
2019-03-19T08:06:51.077Z,15.83
2019-03-19T08:09:17.821Z,13.73
2019-03-19T08:11:44.697Z,15.53
2019-03-19T08:14:11.471Z,19.20
2019-03-19T08:16:38.484Z,13.60
2019-03-19T08:19:05.234Z,15.40
2019-03-19T08:21:32.121Z,14.67
2019-03-19T08:23:59.064Z,12.90
2019-03-19T08:26:26.086Z,19.00
2019-03-19T08:28:55.542Z,20.33
2019-03-19T08:31:21.775Z,12.07
2019-03-19T08:33:48.626Z,18.63
2019-03-19T08:36:15.379Z,12.30
2019-03-19T08:38:42.149Z,18.03
2019-03-19T08:41:09.025Z,18.67
2019-03-19T08:43:36.007Z,20.80
2019-03-19T08:46:02.948Z,20.70
2019-03-19T08:48:29.810Z,17.93
2019-03-19T08:50:56.659Z,21.37
2019-03-19T08:53:23.501Z,20.17
2019-03-19T08:55:50.267Z,32.63
2019-03-19T08:58:17.197Z,18.77
2019-03-19T09:00:44.211Z,20.23
2019-03-19T09:03:11.112Z,18.97
2019-03-19T09:05:38.011Z,21.53
2019-03-19T09:08:04.983Z,14.10
2019-03-19T09:10:31.728Z,18.80
2019-03-19T09:12:58.467Z,17.07
2019-03-19T09:15:25.425Z,14.70
2019-03-19T09:17:52.188Z,17.40
2019-03-19T09:20:19.153Z,16.87
2019-03-19T09:22:46.059Z,23.23
2019-03-19T09:25:13.160Z,18.27
2019-03-19T09:27:40.197Z,16.33
2019-03-19T09:30:09.662Z,21.30
2019-03-19T09:32:36.400Z,17.60
2019-03-19T09:35:03.638Z,20.63
2019-03-19T09:37:30.511Z,13.83
2019-03-19T09:39:57.253Z,12.10
2019-03-19T09:42:24.027Z,16.60
2019-03-19T09:44:58.473Z,15.03
2019-03-19T09:47:19.704Z,14.43
2019-03-19T09:49:46.472Z,19.97
2019-03-19T09:52:13.347Z,13.23
2019-03-19T09:54:40.122Z,14.33
2019-03-19T09:57:07.022Z,16.00
2019-03-19T09:59:33.818Z,15.73
2019-03-19T10:02:00.607Z,12.57
2019-03-19T10:04:27.491Z,14.40
2019-03-19T10:06:54.340Z,12.47
2019-03-19T10:09:21.111Z,11.43
2019-03-19T10:11:48.085Z,10.90
2019-03-19T10:14:14.988Z,10.20
2019-03-19T10:16:41.808Z,11.73
2019-03-19T10:19:08.663Z,13.63
2019-03-19T10:21:35.566Z,10.65
2019-03-19T10:24:02.553Z,13.75
2019-03-19T10:26:29.312Z,14.87
2019-03-19T10:28:56.463Z,10.75
2019-03-19T10:31:23.355Z,8.73
2019-03-19T10:33:50.213Z,13.10
2019-03-19T10:36:16.993Z,9.93
2019-03-19T10:38:43.839Z,9.35
2019-03-19T10:41:10.867Z,8.10
2019-03-19T10:43:37.787Z,13.10
2019-03-19T10:46:04.749Z,9.00
2019-03-19T10:48:31.601Z,12.07
2019-03-19T10:50:58.484Z,8.40
2019-03-19T10:53:25.414Z,6.60
2019-03-19T10:55:52.392Z,12.43
2019-03-19T10:58:19.414Z,8.20
2019-03-19T11:00:46.633Z,9.30
2019-03-19T11:03:13.731Z,10.43
2019-03-19T11:05:40.745Z,10.87
2019-03-19T11:08:07.673Z,8.17
2019-03-19T11:10:34.435Z,8.57
2019-03-19T11:13:01.446Z,10.50
2019-03-19T11:15:28.441Z,12.57
2019-03-19T11:17:55.183Z,12.70
2019-03-19T11:20:21.964Z,6.43
2019-03-19T11:22:49.136Z,8.70
2019-03-19T11:25:16.030Z,6.07
2019-03-19T11:27:43.687Z,7.67
2019-03-19T11:30:16.011Z,15.07
2019-03-19T11:32:42.888Z,12.93
2019-03-19T11:35:11.248Z,10.90
2019-03-19T11:37:37.999Z,4.80
2019-03-19T11:40:05.147Z,11.47
2019-03-19T11:42:32.173Z,8.30
2019-03-19T11:44:58.939Z,10.33
2019-03-19T11:47:25.676Z,10.43
2019-03-19T11:49:52.431Z,7.87
2019-03-19T11:52:19.187Z,10.47
2019-03-19T11:54:45.926Z,11.27
2019-03-19T11:57:12.863Z,10.30
2019-03-19T11:59:39.611Z,9.83
2019-03-19T12:02:06.723Z,15.37
2019-03-19T12:04:33.455Z,10.27
2019-03-19T12:07:00.196Z,12.40
2019-03-19T12:09:26.991Z,9.03
2019-03-19T12:11:53.885Z,10.20
2019-03-19T12:14:20.659Z,7.43
2019-03-19T12:16:47.447Z,5.60
2019-03-19T12:19:14.355Z,6.93
2019-03-19T12:21:41.263Z,12.37
2019-03-19T12:24:08.137Z,6.70
2019-03-19T12:26:34.858Z,8.00
2019-03-19T12:29:01.587Z,8.40
2019-03-19T12:31:28.355Z,10.67
2019-03-19T12:33:55.107Z,9.70
2019-03-19T12:36:21.851Z,9.80
2019-03-19T12:38:48.588Z,9.05
2019-03-19T12:41:15.332Z,9.95
2019-03-19T12:43:42.083Z,9.48
2019-03-19T12:46:09.083Z,9.08
2019-03-19T12:48:35.931Z,7.67
2019-03-19T12:51:02.810Z,10.43
2019-03-19T12:53:29.606Z,8.40
2019-03-19T12:55:56.363Z,8.68
2019-03-19T12:58:23.223Z,9.98
2019-03-19T13:00:50.009Z,7.85
2019-03-19T13:03:16.728Z,7.30
2019-03-19T13:05:43.728Z,7.90
2019-03-19T13:08:10.475Z,8.35
2019-03-19T13:10:37.459Z,9.33
2019-03-19T13:13:04.542Z,8.03
2019-03-19T13:15:31.338Z,8.00
2019-03-19T13:17:58.233Z,5.55
2019-03-19T13:20:25.011Z,8.70
2019-03-19T13:22:51.804Z,7.05
2019-03-19T13:25:18.682Z,9.50
2019-03-19T13:27:45.625Z,8.60
2019-03-19T13:30:14.719Z,6.75
2019-03-19T13:32:41.603Z,7.40
2019-03-19T13:35:08.815Z,5.47
2019-03-19T13:37:35.951Z,7.85
2019-03-19T13:40:03.359Z,6.70
2019-03-19T13:42:30.228Z,9.08
2019-03-19T13:44:56.986Z,8.57
2019-03-19T13:47:23.861Z,9.97
2019-03-19T13:49:50.623Z,6.10
2019-03-19T13:52:20.244Z,4.93
2019-03-19T13:54:46.995Z,7.73
2019-03-19T13:57:13.910Z,11.40
2019-03-19T13:59:40.800Z,7.37
2019-03-19T14:02:07.548Z,7.20
2019-03-19T14:04:34.328Z,10.23
2019-03-19T14:07:01.364Z,6.63
2019-03-19T14:09:28.248Z,10.47
2019-03-19T14:11:55.135Z,6.87
2019-03-19T14:14:22.002Z,10.70
2019-03-19T14:16:48.762Z,8.83
2019-03-19T14:19:15.674Z,13.03
2019-03-19T14:21:42.695Z,5.80
2019-03-19T14:24:09.905Z,9.17
2019-03-19T14:26:36.611Z,8.63
2019-03-19T14:29:03.499Z,15.23
2019-03-19T14:31:32.005Z,11.13
2019-03-19T14:33:59.140Z,9.97
2019-03-19T14:36:25.915Z,6.97
2019-03-19T14:38:52.687Z,9.30
2019-03-19T14:41:19.575Z,8.10
2019-03-19T14:43:46.507Z,7.07
2019-03-19T14:46:13.492Z,6.60
2019-03-19T14:48:40.239Z,5.80
2019-03-19T14:51:07.168Z,14.13
2019-03-19T14:53:33.935Z,7.73
2019-03-19T14:56:00.938Z,10.83
2019-03-19T14:58:27.733Z,10.40
2019-03-19T15:00:54.644Z,10.43
2019-03-19T15:03:21.513Z,5.53
2019-03-19T15:05:48.515Z,12.63
2019-03-19T15:08:15.242Z,5.17
2019-03-19T15:10:42.250Z,14.33
2019-03-19T15:13:08.989Z,10.43
2019-03-19T15:15:36.083Z,8.27
2019-03-19T15:18:03.289Z,6.87
2019-03-19T15:20:30.055Z,8.00
2019-03-19T15:22:56.949Z,8.50
2019-03-19T15:25:23.850Z,13.73
2019-03-19T15:27:50.615Z,12.47
2019-03-19T15:30:17.586Z,9.17
2019-03-19T15:32:44.957Z,8.03
2019-03-19T15:35:11.912Z,9.40
2019-03-19T15:37:38.915Z,6.80
2019-03-19T15:40:07.903Z,6.03
2019-03-19T15:42:34.663Z,11.33
2019-03-19T15:45:01.559Z,5.20
2019-03-19T15:47:28.315Z,10.43
2019-03-19T15:49:55.223Z,8.93
2019-03-19T15:52:22.124Z,10.40
2019-03-19T15:54:48.879Z,6.30
2019-03-19T15:57:15.594Z,11.33
2019-03-19T15:59:42.503Z,8.00
2019-03-19T16:02:09.419Z,12.53
2019-03-19T16:04:36.263Z,9.70
2019-03-19T16:07:03.319Z,8.37
2019-03-19T16:09:30.064Z,6.83
2019-03-19T16:11:56.851Z,5.30
2019-03-19T16:14:23.700Z,10.23
2019-03-19T16:16:50.530Z,12.63
2019-03-19T16:19:17.286Z,14.43
2019-03-19T16:21:44.263Z,7.93
2019-03-19T16:24:11.168Z,11.33
2019-03-19T16:26:38.067Z,8.33
2019-03-19T16:29:04.951Z,4.67
2019-03-19T16:31:31.752Z,7.90
2019-03-19T16:33:58.503Z,7.27
2019-03-19T16:36:25.275Z,9.07
2019-03-19T16:38:52.079Z,6.70
2019-03-19T16:41:18.859Z,6.20
2019-03-19T16:43:45.854Z,7.67
2019-03-19T16:46:12.759Z,8.10
2019-03-19T16:48:39.662Z,9.97
2019-03-19T16:51:06.544Z,7.63
2019-03-19T16:53:33.421Z,10.03
2019-03-19T16:56:00.428Z,10.57
2019-03-19T16:58:27.185Z,6.20
2019-03-19T17:00:54.155Z,9.20
2019-03-19T17:03:21.059Z,11.00
2019-03-19T17:05:48.262Z,6.93
2019-03-19T17:08:15.281Z,10.30
2019-03-19T17:10:42.134Z,17.40
2019-03-19T17:13:08.939Z,15.80
2019-03-19T17:15:35.953Z,13.40
2019-03-19T17:18:03.393Z,5.40
2019-03-19T17:20:30.154Z,8.63
2019-03-19T17:22:57.031Z,8.10
2019-03-19T17:25:24.064Z,9.93
2019-03-19T17:27:50.980Z,8.30
2019-03-19T17:30:19.883Z,8.87
2019-03-19T17:32:46.715Z,8.63
2019-03-19T17:35:13.624Z,8.40
2019-03-19T17:37:40.374Z,6.10
2019-03-19T17:40:08.043Z,5.60
2019-03-19T17:42:34.945Z,9.93
2019-03-19T17:45:01.939Z,5.77
2019-03-19T17:47:28.859Z,9.27
2019-03-19T17:49:55.729Z,7.10
2019-03-19T17:52:22.644Z,10.00
2019-03-19T17:54:49.571Z,10.90
2019-03-19T17:57:16.528Z,10.40
2019-03-19T17:59:43.261Z,6.33
2019-03-19T18:02:10.143Z,7.00
2019-03-19T18:04:37.200Z,12.10
2019-03-19T18:07:04.169Z,12.20
2019-03-19T18:09:31.059Z,9.07
2019-03-19T18:11:58.083Z,6.43
2019-03-19T18:14:25.087Z,9.83
2019-03-19T18:16:51.989Z,6.47
2019-03-19T18:19:18.842Z,6.97
2019-03-19T18:21:45.671Z,9.80
2019-03-19T18:24:12.551Z,6.83
2019-03-19T18:26:39.293Z,8.67
2019-03-19T18:29:06.170Z,8.50
2019-03-19T18:31:32.889Z,10.33
2019-03-19T18:34:09.868Z,6.00
2019-03-19T18:36:28.399Z,8.43
2019-03-19T18:38:55.306Z,11.93
2019-03-19T18:41:22.162Z,7.27
2019-03-19T18:43:49.031Z,8.03
2019-03-19T18:46:15.827Z,6.83
2019-03-19T18:48:42.648Z,7.10
2019-03-19T18:51:09.472Z,9.00
2019-03-19T18:53:36.229Z,11.00
2019-03-19T18:56:03.175Z,11.00
2019-03-19T18:58:30.071Z,12.83
2019-03-19T19:00:57.114Z,8.53
2019-03-19T19:03:23.867Z,11.97
2019-03-19T19:05:50.742Z,7.60
2019-03-19T19:08:17.489Z,4.13
2019-03-19T19:10:44.376Z,6.83
2019-03-19T19:13:11.106Z,9.77
2019-03-19T19:15:37.940Z,8.83
2019-03-19T19:18:04.987Z,7.67
2019-03-19T19:20:31.735Z,8.50
2019-03-19T19:22:58.627Z,10.87
2019-03-19T19:25:25.732Z,8.00
2019-03-19T19:27:52.631Z,8.30
2019-03-19T19:30:19.720Z,9.00
2019-03-19T19:32:46.825Z,11.83
2019-03-19T19:35:13.690Z,6.30
2019-03-19T19:37:40.532Z,6.73
2019-03-19T19:40:09.056Z,8.73
2019-03-19T19:42:35.829Z,9.67
2019-03-19T19:45:03.133Z,13.90
2019-03-19T19:47:29.907Z,12.87
2019-03-19T19:49:56.802Z,10.70
2019-03-19T19:52:23.607Z,14.77
2019-03-19T19:54:50.363Z,10.17
2019-03-19T19:57:17.423Z,8.63
2019-03-19T19:59:44.194Z,9.83
2019-03-19T20:02:10.961Z,10.30
2019-03-19T20:04:37.729Z,17.50
2019-03-19T20:07:04.727Z,15.57
2019-03-19T20:09:31.500Z,12.87
2019-03-19T20:11:58.705Z,10.20
2019-03-19T20:14:25.554Z,10.87
2019-03-19T20:16:52.279Z,9.80
2019-03-19T20:19:19.033Z,11.63
2019-03-19T20:21:45.763Z,13.13
2019-03-19T20:24:12.580Z,9.67
2019-03-19T20:26:39.533Z,14.47
2019-03-19T20:29:06.292Z,10.47
2019-03-19T20:31:33.067Z,11.03
2019-03-19T20:33:59.951Z,9.27
2019-03-19T20:36:26.779Z,12.23
2019-03-19T20:38:53.595Z,11.90
2019-03-19T20:41:20.567Z,12.17
2019-03-19T20:43:47.372Z,10.07
2019-03-19T20:46:14.337Z,13.43
2019-03-19T20:48:41.105Z,11.50
2019-03-19T20:51:08.219Z,11.87
2019-03-19T20:53:35.110Z,17.77
2019-03-19T20:56:02.088Z,17.13
2019-03-19T20:58:28.965Z,14.57
2019-03-19T21:00:56.007Z,12.20
2019-03-19T21:03:22.879Z,12.73
2019-03-19T21:05:49.849Z,11.60
2019-03-19T21:08:16.716Z,8.33
2019-03-19T21:10:43.731Z,9.23
2019-03-19T21:13:10.636Z,10.47
2019-03-19T21:15:38.173Z,10.67
2019-03-19T21:18:05.195Z,8.87
2019-03-19T21:20:31.972Z,8.47
2019-03-19T21:22:58.979Z,6.47
2019-03-19T21:25:25.863Z,6.87
2019-03-19T21:27:55.166Z,9.80
2019-03-19T21:30:23.571Z,8.63
2019-03-19T21:32:52.931Z,7.43
2019-03-19T21:35:20.823Z,10.80
2019-03-19T21:37:49.999Z,7.83
2019-03-19T21:40:23.639Z,8.43
2019-03-19T21:42:51.322Z,6.60
2019-03-19T21:45:18.979Z,6.47
2019-03-19T21:47:46.548Z,6.43
2019-03-19T21:50:14.231Z,10.30
2019-03-19T21:52:41.711Z,4.67
2019-03-19T21:55:14.023Z,6.10
2019-03-19T21:57:41.516Z,10.00
2019-03-19T22:00:11.542Z,9.70
2019-03-19T22:02:39.495Z,9.93
2019-03-19T22:05:06.903Z,9.53
2019-03-19T22:07:33.784Z,12.70
2019-03-19T22:10:00.719Z,6.93
2019-03-19T22:12:27.711Z,10.50
2019-03-19T22:14:54.817Z,10.40
2019-03-19T22:17:21.954Z,7.93
2019-03-19T22:19:48.714Z,10.10
2019-03-19T22:22:15.772Z,8.27
2019-03-19T22:24:42.661Z,9.07
2019-03-19T22:27:09.672Z,9.17
2019-03-19T22:29:36.515Z,11.97
2019-03-19T22:32:03.359Z,11.57
2019-03-19T22:34:37.802Z,9.43
2019-03-19T22:37:04.675Z,9.70
2019-03-19T22:39:31.451Z,12.37
2019-03-19T22:41:58.869Z,9.97
2019-03-19T22:44:25.627Z,8.20
2019-03-19T22:46:52.383Z,13.90
2019-03-19T22:49:19.123Z,5.00
2019-03-19T22:51:45.983Z,8.83
2019-03-19T22:54:12.728Z,6.40
2019-03-19T22:56:39.491Z,8.80
2019-03-19T22:59:06.344Z,8.47
2019-03-19T23:01:33.255Z,9.20
2019-03-19T23:04:00.144Z,5.43
2019-03-19T23:06:26.911Z,8.10
2019-03-19T23:08:53.719Z,3.17
2019-03-19T23:11:20.471Z,5.80
2019-03-19T23:13:47.795Z,4.67
2019-03-19T23:16:14.568Z,5.40
2019-03-19T23:18:41.458Z,5.73
2019-03-19T23:21:08.324Z,5.87
2019-03-19T23:23:35.299Z,5.53
2019-03-19T23:26:02.281Z,8.43
2019-03-19T23:28:29.182Z,11.67
2019-03-19T23:30:55.951Z,4.37
2019-03-19T23:33:22.722Z,4.33
2019-03-19T23:35:49.470Z,6.73
2019-03-19T23:38:16.298Z,6.17
2019-03-19T23:40:43.202Z,7.53
2019-03-19T23:43:10.099Z,4.00
2019-03-19T23:45:36.859Z,4.70
2019-03-19T23:48:03.681Z,4.70
2019-03-19T23:50:30.696Z,7.23
2019-03-19T23:52:57.581Z,4.67
2019-03-19T23:55:24.471Z,5.03
2019-03-19T23:57:51.345Z,5.43
